Time;durP1;ratioP1;P1;durP2;ratioP2;P2;SDS_P1;SDS_P2;PMS_P1;PMS_P2;Temp;Humidity;BMP_temperature;BMP_pressure;BME280_temperature;BME280_humidity;BME280_pressure;Samples;Min_cycle;Max_cycle;Signal;HPM_P1;HPM_P2
2022/07/06 00:01:35;;;;;;;4.27;2.63;;;;;;;17.49;97.34;100894.31;4973160;28;20190;-77
2022/07/06 00:04:04;;;;;;;2.50;2.27;;;;;;;17.56;95.38;100898.50;4974487;28;20228;-77
2022/07/06 00:06:30;;;;;;;4.00;2.87;;;;;;;17.65;95.00;100898.22;4973130;28;20845;-77
2022/07/06 00:08:55;;;;;;;3.47;2.30;;;;;;;17.71;94.72;100901.56;4975525;28;20198;-77
2022/07/06 00:11:21;;;;;;;3.53;2.43;;;;;;;17.72;94.50;100898.91;4974682;28;20570;-76
2022/07/06 00:13:46;;;;;;;2.40;2.20;;;;;;;17.74;95.27;100898.88;4974875;28;20658;-77
2022/07/06 00:16:12;;;;;;;2.53;2.33;;;;;;;17.75;94.51;100898.81;4972964;28;20899;-77
2022/07/06 00:18:37;;;;;;;2.20;2.10;;;;;;;17.73;92.99;100905.84;4968729;28;20185;-77
2022/07/06 00:21:03;;;;;;;2.80;2.50;;;;;;;17.75;91.72;100897.97;4974058;28;20193;-77
2022/07/06 00:23:28;;;;;;;2.37;2.10;;;;;;;17.79;91.19;100904.81;4988562;28;20277;-77
2022/07/06 00:25:54;;;;;;;4.30;2.77;;;;;;;17.80;90.30;100909.16;4970759;28;20969;-76
2022/07/06 00:28:19;;;;;;;2.60;2.23;;;;;;;17.82;89.27;100905.59;4971061;28;20220;-76
2022/07/06 00:30:44;;;;;;;4.70;2.23;;;;;;;17.84;88.74;100908.16;4971548;28;20233;-76
2022/07/06 00:33:10;;;;;;;2.87;2.60;;;;;;;17.88;88.62;100906.31;4972652;28;20604;-78
2022/07/06 00:35:35;;;;;;;2.60;2.40;;;;;;;17.87;89.03;100912.44;4970117;28;20221;-77
2022/07/06 00:38:01;;;;;;;2.70;2.43;;;;;;;17.87;88.88;100922.91;4971674;28;20245;-77
2022/07/06 00:40:26;;;;;;;2.20;2.00;;;;;;;17.85;89.27;100916.91;4972827;28;20243;-78
2022/07/06 00:42:52;;;;;;;2.47;2.13;;;;;;;17.83;89.89;100919.53;4971285;28;20203;-77
2022/07/06 00:45:18;;;;;;;3.23;2.30;;;;;;;17.80;90.52;100928.34;4969193;28;20207;-77
2022/07/06 00:47:44;;;;;;;2.20;2.00;;;;;;;17.77;90.71;100925.81;4967233;28;20206;-77
2022/07/06 00:50:14;;;;;;;1.83;1.73;;;;;;;17.72;90.43;100922.47;4983632;28;20247;-77
2022/07/06 00:52:47;;;;;;;2.07;1.83;;;;;;;17.69;90.42;100922.56;4976702;28;20273;-78
2022/07/06 00:55:14;;;;;;;2.20;2.00;;;;;;;17.66;91.07;100922.66;4993994;28;20208;-77
2022/07/06 00:57:40;;;;;;;2.40;2.20;;;;;;;17.64;91.82;100921.84;4987171;28;21138;-78
2022/07/06 01:00:08;;;;;;;2.57;2.37;;;;;;;17.62;92.82;100915.78;4974024;28;20734;-77
2022/07/06 01:02:35;;;;;;;2.33;2.13;;;;;;;17.59;93.07;100919.34;4968712;28;20185;-77
2022/07/06 01:05:02;;;;;;;1.80;1.70;;;;;;;17.55;93.00;100917.72;4972992;28;20228;-77
2022/07/06 01:07:28;;;;;;;2.00;1.90;;;;;;;17.48;91.89;100917.03;4968071;28;20186;-77
2022/07/06 01:09:54;;;;;;;2.40;1.60;;;;;;;17.41;91.58;100910.22;4970172;28;20188;-76
2022/07/06 01:12:19;;;;;;;1.87;1.77;;;;;;;17.40;91.57;100915.53;4973392;28;20225;-77
2022/07/06 01:14:48;;;;;;;2.00;1.90;;;;;;;17.37;90.96;100917.31;4969826;28;20191;-77
2022/07/06 01:17:13;;;;;;;1.80;1.70;;;;;;;17.35;90.73;100907.81;4972402;28;20218;-77
2022/07/06 01:19:39;;;;;;;2.43;2.17;;;;;;;17.34;90.71;100903.47;4973984;28;20193;-77
2022/07/06 01:22:05;;;;;;;2.73;2.10;;;;;;;17.36;91.91;100907.75;4972391;28;20185;-77
2022/07/06 01:24:30;;;;;;;2.50;2.30;;;;;;;17.40;93.22;100907.66;4972042;28;20190;-77
2022/07/06 01:26:56;;;;;;;2.70;2.50;;;;;;;17.38;93.49;100902.50;4968481;28;20210;-78
2022/07/06 01:29:21;;;;;;;2.30;2.10;;;;;;;17.33;93.37;100899.97;4972847;28;20193;-77
2022/07/06 01:31:48;;;;;;;3.10;2.30;;;;;;;17.30;94.29;100901.84;4967628;28;20186;-78
2022/07/06 01:34:15;;;;;;;2.63;2.43;;;;;;;17.23;93.97;100901.13;4970477;28;20281;-77
2022/07/06 01:36:40;;;;;;;2.50;2.30;;;;;;;17.20;93.62;100906.44;4977026;28;20245;-76
2022/07/06 01:39:08;;;;;;;2.53;2.00;;;;;;;17.17;92.97;100898.66;4970671;28;20221;-76
2022/07/06 01:41:33;;;;;;;2.43;2.23;;;;;;;17.15;92.52;100895.28;4969949;28;20222;-76
2022/07/06 01:43:59;;;;;;;2.30;2.20;;;;;;;17.15;92.48;100898.72;4971501;28;20228;-77
2022/07/06 01:46:24;;;;;;;2.20;2.00;;;;;;;17.15;92.26;100897.88;4970774;28;20201;-76
2022/07/06 01:48:49;;;;;;;2.50;2.30;;;;;;;17.14;92.78;100906.63;4970504;28;20253;-77
2022/07/06 01:51:15;;;;;;;2.53;2.33;;;;;;;17.13;93.03;100904.91;4971390;28;20213;-77
2022/07/06 01:53:41;;;;;;;4.27;2.47;;;;;;;17.11;93.45;100902.31;4975036;28;20189;-77
2022/07/06 01:56:06;;;;;;;2.70;2.50;;;;;;;17.09;94.46;100898.91;4968452;28;20214;-77
2022/07/06 01:58:32;;;;;;;4.63;2.53;;;;;;;17.05;95.25;100911.19;4969814;28;20183;-77
2022/07/06 02:00:58;;;;;;;2.93;2.73;;;;;;;17.00;95.17;100910.47;4972716;28;20213;-76
2022/07/06 02:03:23;;;;;;;3.70;2.60;;;;;;;16.96;95.81;100921.88;4968760;28;20185;-77
2022/07/06 02:05:49;;;;;;;3.00;2.70;;;;;;;16.92;96.87;100921.09;4969444;28;20292;-76
2022/07/06 02:08:14;;;;;;;2.73;2.53;;;;;;;16.88;96.86;100918.56;4969217;28;20260;-78
2022/07/06 02:10:40;;;;;;;2.90;2.40;;;;;;;16.84;96.87;100917.78;4969874;28;20180;-77
2022/07/06 02:13:06;;;;;;;2.73;2.47;;;;;;;16.82;96.43;100919.56;4971425;28;20770;-76
2022/07/06 02:15:31;;;;;;;3.30;3.00;;;;;;;16.79;97.36;100910.97;4970736;28;20209;-76
2022/07/06 02:17:56;;;;;;;3.00;2.70;;;;;;;16.72;97.56;100916.31;4966081;28;20187;-77
2022/07/06 02:20:22;;;;;;;3.47;2.73;;;;;;;16.66;97.34;100913.88;4970432;28;20205;-77
2022/07/06 02:22:47;;;;;;;3.07;2.50;;;;;;;16.62;97.34;100914.84;4970459;28;20194;-76
2022/07/06 02:25:12;;;;;;;2.77;2.57;;;;;;;16.60;97.24;100919.25;4976340;28;20210;-77
2022/07/06 02:27:38;;;;;;;2.93;2.73;;;;;;;16.60;97.24;100911.41;4975480;28;20261;-76
2022/07/06 02:30:05;;;;;;;2.80;2.60;;;;;;;16.59;96.86;100920.13;4973974;28;20261;-77
2022/07/06 02:32:31;;;;;;;3.77;2.70;;;;;;;16.59;96.92;100917.53;4990856;28;20229;-77
2022/07/06 02:34:56;;;;;;;3.57;2.67;;;;;;;16.59;96.63;100927.97;4986934;28;20252;-77
2022/07/06 02:37:21;;;;;;;2.90;2.70;;;;;;;16.57;96.67;100920.19;4971635;28;20212;-76
2022/07/06 02:39:47;;;;;;;3.47;3.17;;;;;;;16.57;96.77;100920.19;4965070;28;20713;-77
2022/07/06 02:42:14;;;;;;;3.00;2.80;;;;;;;16.58;96.38;100923.66;4966856;28;20190;-77
2022/07/06 02:44:39;;;;;;;3.00;2.80;;;;;;;16.56;96.67;100925.47;4983440;28;20541;-76
2022/07/06 02:47:04;;;;;;;3.30;3.00;;;;;;;16.55;96.75;100924.59;4968796;28;20212;-77
2022/07/06 02:49:30;;;;;;;3.07;2.77;;;;;;;16.55;96.76;100924.59;4986352;28;20326;-77
2022/07/06 02:51:55;;;;;;;3.23;3.03;;;;;;;16.52;96.68;100927.25;4972866;28;20186;-77
2022/07/06 02:54:20;;;;;;;3.10;2.90;;;;;;;16.49;96.65;100924.72;4973755;28;20232;-77
2022/07/06 02:56:50;;;;;;;3.23;3.03;;;;;;;16.48;97.07;100930.00;4971265;28;20218;-76
2022/07/06 02:59:16;;;;;;;3.20;2.90;;;;;;;16.46;97.57;100938.72;4970675;28;20186;-76
2022/07/06 03:01:42;;;;;;;3.17;2.93;;;;;;;16.47;98.36;100947.44;4975125;28;20319;-77
2022/07/06 03:04:07;;;;;;;2.93;2.73;;;;;;;16.44;99.32;100942.28;4970643;28;20198;-77
2022/07/06 03:06:32;;;;;;;2.87;2.67;;;;;;;16.41;99.45;100943.19;4969619;28;20202;-77
2022/07/06 03:08:58;;;;;;;3.03;2.70;;;;;;;16.37;99.32;100948.50;4969417;28;20182;-76
2022/07/06 03:11:23;;;;;;;3.60;3.30;;;;;;;16.34;99.81;100952.06;4972184;28;20537;-76
2022/07/06 03:13:49;;;;;;;4.33;3.20;;;;;;;16.31;100.00;100946.91;4970950;28;20201;-77
2022/07/06 03:16:14;;;;;;;3.23;3.03;;;;;;;16.29;100.00;100959.13;4990203;28;20223;-76
2022/07/06 03:18:39;;;;;;;3.83;3.40;;;;;;;16.27;100.00;100950.47;4972511;28;20205;-77
2022/07/06 03:21:05;;;;;;;3.90;3.50;;;;;;;16.23;100.00;100956.69;4973124;28;20197;-77
2022/07/06 03:23:30;;;;;;;3.17;2.97;;;;;;;16.23;100.00;100960.13;4973406;28;20185;-77
2022/07/06 03:25:56;;;;;;;3.93;3.60;;;;;;;16.23;100.00;100962.75;4974888;28;20264;-77
2022/07/06 03:28:21;;;;;;;4.73;3.03;;;;;;;16.21;100.00;100961.06;4973129;28;20193;-77
2022/07/06 03:30:46;;;;;;;7.87;3.90;;;;;;;16.18;100.00;100958.53;4972054;28;20198;-76
2022/07/06 03:33:12;;;;;;;7.83;3.80;;;;;;;16.13;100.00;100954.25;4973600;28;20612;-77
2022/07/06 03:35:37;;;;;;;7.87;4.00;;;;;;;16.11;100.00;100958.63;4973956;28;20221;-76
2022/07/06 03:38:03;;;;;;;5.13;3.93;;;;;;;16.09;100.00;100959.56;4973136;28;20186;-76
2022/07/06 03:40:28;;;;;;;3.90;3.60;;;;;;;16.09;100.00;100964.78;4973777;28;20186;-77
2022/07/06 03:42:53;;;;;;;3.90;3.50;;;;;;;16.09;100.00;100960.44;4973630;28;20637;-77
2022/07/06 03:45:19;;;;;;;3.63;3.33;;;;;;;16.10;100.00;100956.06;4969690;28;20210;-77
2022/07/06 03:47:44;;;;;;;3.33;3.03;;;;;;;16.11;100.00;100952.56;4969971;28;20833;-77
2022/07/06 03:50:09;;;;;;;4.90;3.70;;;;;;;16.11;100.00;100960.41;4970411;28;20242;-77
2022/07/06 03:52:39;;;;;;;4.77;3.87;;;;;;;16.13;100.00;100959.47;4976430;28;20205;-77
2022/07/06 03:55:07;;;;;;;6.43;3.30;;;;;;;16.14;100.00;100966.41;4971109;28;20214;-77
2022/07/06 03:57:32;;;;;;;4.73;3.53;;;;;;;16.19;100.00;100958.47;4968036;28;20712;-77
2022/07/06 03:59:58;;;;;;;4.73;3.70;;;;;;;16.27;100.00;100966.13;4965930;28;20191;-76
2022/07/06 04:02:23;;;;;;;4.27;3.07;;;;;;;16.51;99.23;100969.13;4973777;28;20210;-77
2022/07/06 04:04:48;;;;;;;3.17;2.93;;;;;;;16.74;98.00;100965.97;4971899;28;20221;-76
2022/07/06 04:07:14;;;;;;;5.70;2.50;;;;;;;16.92;95.97;100973.38;4972942;28;20182;-76
2022/07/06 04:09:39;;;;;;;4.83;3.07;;;;;;;16.98;95.07;100969.78;4972727;28;20657;-76
2022/07/06 04:12:05;;;;;;;2.90;2.63;;;;;;;16.98;94.24;100975.00;4972696;28;20665;-76
2022/07/06 04:14:30;;;;;;;2.90;2.60;;;;;;;16.97;93.82;100972.41;4972424;28;20189;-76
2022/07/06 04:16:55;;;;;;;4.90;2.87;;;;;;;16.97;92.48;100973.28;4991052;28;20771;-76
2022/07/06 04:19:24;;;;;;;5.00;2.97;;;;;;;16.96;92.90;100974.19;4966129;28;20191;-75
2022/07/06 04:21:49;;;;;;;5.40;2.90;;;;;;;16.98;93.20;100976.75;4974599;28;20538;-76
2022/07/06 04:24:14;;;;;;;3.90;2.37;;;;;;;17.08;92.81;100980.00;4970655;28;20205;-75
2022/07/06 04:26:40;;;;;;;5.17;2.97;;;;;;;17.34;92.14;100974.94;4983000;28;20462;-75
2022/07/06 04:29:05;;;;;;;4.43;2.83;;;;;;;17.50;90.80;100980.66;4965489;28;20186;-75
2022/07/06 04:31:30;;;;;;;5.63;2.70;;;;;;;17.60;90.09;100986.50;4972462;28;20182;-76
2022/07/06 04:33:56;;;;;;;4.23;2.37;;;;;;;17.62;90.20;100987.28;4984065;28;20182;-76
2022/07/06 04:36:21;;;;;;;3.43;2.43;;;;;;;17.64;90.20;100993.34;4973038;28;20206;-76
2022/07/06 04:38:47;;;;;;;3.80;2.80;;;;;;;17.70;88.91;101001.94;4970195;28;20917;-75
2022/07/06 04:41:12;;;;;;;4.17;2.27;;;;;;;17.84;88.46;100991.94;4970055;28;20208;-76
2022/07/06 04:43:43;;;;;;;4.77;2.40;;;;;;;18.23;87.33;101001.34;4971387;28;20187;-75
2022/07/06 04:46:09;;;;;;;4.13;2.50;;;;;;;19.06;82.95;100997.94;4970125;28;20217;-75
2022/07/06 04:48:38;;;;;;;3.47;2.40;;;;;;;19.75;81.00;101001.72;4970178;28;20194;-76
2022/07/06 04:51:04;;;;;;;3.70;2.30;;;;;;;20.02;79.12;100996.38;4969220;28;20273;-74
2022/07/06 04:53:30;;;;;;;5.37;2.80;;;;;;;20.10;79.44;101005.69;4965663;28;20280;-75
2022/07/06 04:55:56;;;;;;;4.83;2.13;;;;;;;20.64;77.08;100994.03;4967964;28;20221;-75
2022/07/06 04:58:21;;;;;;;5.90;2.03;;;;;;;21.15;76.28;100999.88;4984952;28;20186;-74
2022/07/06 05:00:46;;;;;;;3.93;2.20;;;;;;;20.67;76.60;100996.53;4971875;28;20275;-75
2022/07/06 05:03:12;;;;;;;4.83;2.13;;;;;;;20.54;77.04;100991.78;4972422;28;20182;-77
2022/07/06 05:05:37;;;;;;;3.63;2.40;;;;;;;20.07;78.82;100994.44;4972037;28;20197;-75
2022/07/06 05:08:03;;;;;;;4.67;2.00;;;;;;;20.98;77.24;101001.41;4968454;28;20226;-75
2022/07/06 05:10:28;;;;;;;2.30;2.03;;;;;;;21.94;74.45;101009.66;4984851;28;20821;-76
2022/07/06 05:12:55;;;;;;;2.17;1.80;;;;;;;22.72;71.17;101006.97;4962722;28;22819;-76
2022/07/06 05:15:20;;;;;;;2.97;1.70;;;;;;;23.57;69.56;101007.16;4969870;28;20206;-75
2022/07/06 05:17:45;;;;;;;2.77;1.90;;;;;;;23.32;69.26;101005.78;4972107;28;20205;-75
2022/07/06 05:20:11;;;;;;;3.50;2.00;;;;;;;24.10;67.63;100994.66;4968144;28;20186;-76
2022/07/06 05:22:36;;;;;;;3.70;1.90;;;;;;;24.89;66.05;100992.09;4984085;28;20245;-75
2022/07/06 05:25:02;;;;;;;5.43;1.90;;;;;;;24.57;65.38;101000.91;4971571;28;20206;-77
2022/07/06 05:27:27;;;;;;;3.27;1.87;;;;;;;25.08;64.58;101003.31;4970764;28;20190;-76
2022/07/06 05:29:52;;;;;;;5.00;2.00;;;;;;;25.14;64.16;101001.22;4972627;28;20190;-74
2022/07/06 05:32:18;;;;;;;3.40;1.80;;;;;;;25.22;64.10;101005.13;4974203;28;20190;-76
2022/07/06 05:34:43;;;;;;;2.67;1.63;;;;;;;24.98;64.07;101002.13;4967390;28;20185;-76
2022/07/06 05:37:09;;;;;;;3.27;1.77;;;;;;;25.61;63.09;101004.66;4968519;28;20229;-75
2022/07/06 05:39:34;;;;;;;2.53;1.70;;;;;;;25.72;62.31;101015.44;4968456;28;20186;-75
2022/07/06 05:41:59;;;;;;;4.90;2.00;;;;;;;25.35;62.30;101015.84;4968091;28;20273;-75
2022/07/06 05:44:25;;;;;;;4.37;2.30;;;;;;;25.58;61.94;101016.28;4968737;28;20182;-76
2022/07/06 05:46:50;;;;;;;5.47;1.97;;;;;;;26.22;61.67;101007.94;4969653;28;20236;-75
2022/07/06 05:52:04;;;;;;;5.93;1.93;;;;;;;26.87;59.49;101018.84;4977101;28;20196;-75
2022/07/06 05:54:29;;;;;;;2.87;1.70;;;;;;;27.13;59.08;101000.34;4969938;28;20648;-76
2022/07/06 05:56:55;;;;;;;4.60;2.00;;;;;;;27.07;58.76;101007.75;4972291;28;20216;-75
2022/07/06 05:59:20;;;;;;;4.03;1.80;;;;;;;27.95;58.03;101013.34;4976827;28;20193;-75
2022/07/06 06:01:45;;;;;;;3.20;1.63;;;;;;;28.28;57.73;101009.25;4985530;28;20185;-76
2022/07/06 06:04:10;;;;;;;2.97;1.80;;;;;;;27.73;58.02;101022.81;4969304;28;20186;-76
2022/07/06 06:06:36;;;;;;;3.03;1.57;;;;;;;28.23;58.05;101004.22;4975862;28;20197;-76
2022/07/06 06:09:01;;;;;;;2.70;1.60;;;;;;;28.81;56.62;101014.25;4968150;28;20182;-76
2022/07/06 06:11:27;;;;;;;2.30;1.37;;;;;;;28.65;57.00;101011.00;4983935;28;20189;-75
2022/07/06 06:13:52;;;;;;;3.23;1.50;;;;;;;28.93;56.49;101008.97;4984606;28;20681;-76
2022/07/06 06:16:17;;;;;;;3.77;2.00;;;;;;;29.01;56.14;101019.88;4963876;28;20201;-75
2022/07/06 06:18:43;;;;;;;3.83;1.70;;;;;;;28.73;56.54;101012.16;4965736;28;20855;-76
2022/07/06 06:21:09;;;;;;;2.53;1.70;;;;;;;29.32;55.83;101013.06;4968326;28;20181;-76
2022/07/06 06:23:34;;;;;;;1.50;1.40;;;;;;;29.59;56.00;101019.91;4984875;28;20189;-74
2022/07/06 06:25:59;;;;;;;1.83;1.37;;;;;;;30.05;55.23;101018.09;4969947;28;20202;-75
2022/07/06 06:28:25;;;;;;;2.63;1.77;;;;;;;30.40;54.60;101018.91;4971406;28;20199;-75
2022/07/06 06:30:50;;;;;;;1.87;1.67;;;;;;;30.62;54.46;101014.50;4966523;28;20201;-76
2022/07/06 06:33:18;;;;;;;3.00;1.70;;;;;;;30.99;53.93;101014.94;4974869;28;20185;-77
2022/07/06 06:35:46;;;;;;;3.37;1.63;;;;;;;31.19;53.68;101019.59;4968223;28;20213;-75
2022/07/06 06:38:12;;;;;;;3.57;1.30;;;;;;;31.47;53.71;101018.06;4962028;28;20186;-75
2022/07/06 06:40:38;;;;;;;3.27;2.00;;;;;;;30.52;53.66;101023.25;4965983;28;20297;-75
2022/07/06 06:43:04;;;;;;;2.50;1.33;;;;;;;30.94;54.12;101022.47;4969975;28;20204;-75
2022/07/06 06:45:29;;;;;;;4.10;1.70;;;;;;;29.50;55.47;101023.28;4968664;28;20240;-75
2022/07/06 06:47:55;;;;;;;4.07;1.80;;;;;;;28.65;56.18;101024.31;4974016;28;20174;-75
2022/07/06 06:50:23;;;;;;;1.97;1.63;;;;;;;28.36;57.22;101025.50;4990677;28;20182;-76
2022/07/06 06:52:50;;;;;;;2.17;1.90;;;;;;;28.44;56.64;101025.75;4968812;28;20201;-74
2022/07/06 06:55:15;;;;;;;4.37;1.90;;;;;;;28.52;56.89;101025.19;4986336;28;20210;-76
2022/07/06 06:57:41;;;;;;;5.13;1.70;;;;;;;28.99;56.31;101025.34;4974382;28;20208;-75
2022/07/06 07:00:07;;;;;;;1.87;1.60;;;;;;;29.33;55.86;101020.09;4970057;28;20661;-75
2022/07/06 07:02:32;;;;;;;3.97;1.73;;;;;;;29.41;55.70;101016.00;4975025;28;20186;-74
2022/07/06 07:04:58;;;;;;;2.90;1.90;;;;;;;29.45;55.47;101020.97;4972789;28;20186;-75
2022/07/06 07:07:23;;;;;;;4.97;1.90;;;;;;;29.27;55.91;101022.41;4972198;28;20182;-75
2022/07/06 07:09:48;;;;;;;2.40;1.80;;;;;;;29.43;55.86;101022.06;4969452;28;20208;-75
2022/07/06 07:12:16;;;;;;;4.60;2.30;;;;;;;28.87;56.08;101018.28;4973425;28;20672;-75
2022/07/06 07:14:42;;;;;;;3.13;1.83;;;;;;;29.15;55.93;101016.19;4971207;28;20182;-76
2022/07/06 07:17:08;;;;;;;2.67;1.83;;;;;;;29.48;55.96;101019.91;4982102;28;20208;-76
2022/07/06 07:19:33;;;;;;;3.37;2.03;;;;;;;29.66;55.67;101023.78;4984830;28;20297;-75
2022/07/06 07:21:59;;;;;;;3.93;2.10;;;;;;;28.92;56.27;101015.25;4973463;28;20270;-75
2022/07/06 07:24:24;;;;;;;3.20;2.03;;;;;;;29.09;56.34;101024.63;4987340;28;20189;-76
2022/07/06 07:26:49;;;;;;;2.20;1.90;;;;;;;28.95;56.56;101017.69;4973783;28;20208;-75
2022/07/06 07:29:15;;;;;;;2.97;2.10;;;;;;;29.05;56.42;101011.53;4984743;28;20565;-75
2022/07/06 07:31:41;;;;;;;3.47;1.90;;;;;;;28.90;56.25;101018.03;4972486;28;20181;-75
2022/07/06 07:34:06;;;;;;;3.43;2.03;;;;;;;29.11;56.60;101012.91;4972590;28;20873;-75
2022/07/06 07:36:32;;;;;;;2.27;1.77;;;;;;;29.17;56.36;101016.91;4972628;28;20206;-76
2022/07/06 07:38:57;;;;;;;2.70;1.70;;;;;;;29.14;56.69;101017.97;4969800;28;20196;-75
2022/07/06 07:41:23;;;;;;;3.27;1.80;;;;;;;29.07;56.86;101010.56;4974224;28;20214;-75
2022/07/06 07:43:48;;;;;;;5.37;2.23;;;;;;;28.77;57.34;101006.59;4973588;28;20181;-75
2022/07/06 07:46:14;;;;;;;3.13;1.70;;;;;;;28.74;57.44;101013.84;4970043;28;20212;-75
2022/07/06 07:48:39;;;;;;;2.10;1.70;;;;;;;28.63;57.50;101018.25;4987696;28;20198;-75
2022/07/06 07:51:04;;;;;;;2.67;2.13;;;;;;;28.38;57.47;101015.59;4977790;28;20194;-75
2022/07/06 07:53:30;;;;;;;2.90;1.90;;;;;;;27.64;59.00;101024.31;4985832;28;20187;-75
2022/07/06 07:55:55;;;;;;;5.73;2.40;;;;;;;27.42;59.03;101019.59;4973226;28;20217;-75
2022/07/06 07:58:20;;;;;;;4.13;2.73;;;;;;;26.84;59.51;101022.56;4972626;28;20679;-75
2022/07/06 08:00:46;;;;;;;5.70;2.60;;;;;;;26.84;60.13;101017.25;4989330;28;20182;-75
2022/07/06 08:03:12;;;;;;;4.70;2.27;;;;;;;26.63;60.67;101011.53;4974026;28;20685;-75
2022/07/06 08:05:37;;;;;;;4.17;2.50;;;;;;;26.68;60.35;101012.09;4975769;28;20215;-78
2022/07/06 08:08:03;;;;;;;5.00;2.23;;;;;;;26.52;60.75;101008.75;4972197;28;20212;-74
2022/07/06 08:10:29;;;;;;;3.73;2.30;;;;;;;25.97;61.19;101025.38;4972618;28;20262;-75
2022/07/06 08:12:55;;;;;;;2.83;1.90;;;;;;;26.19;60.95;101010.78;4982042;28;20253;-75
2022/07/06 08:15:20;;;;;;;3.40;2.17;;;;;;;26.36;61.32;101011.50;4969712;28;20276;-75
2022/07/06 08:17:46;;;;;;;2.43;1.90;;;;;;;26.46;61.83;101008.19;4968522;28;20215;-74
2022/07/06 08:20:12;;;;;;;4.20;2.80;;;;;;;26.07;61.62;101004.44;4971517;28;20196;-76
2022/07/06 08:22:37;;;;;;;3.63;2.17;;;;;;;26.19;61.66;101008.13;4957522;28;20291;-74
2022/07/06 08:25:05;;;;;;;4.70;2.23;;;;;;;26.28;61.35;100998.75;4969990;28;20373;-76
2022/07/06 08:27:30;;;;;;;3.20;2.20;;;;;;;25.99;62.42;101010.25;4971621;28;20209;-76
2022/07/06 08:29:55;;;;;;;3.80;2.20;;;;;;;25.80;62.56;101007.84;4974010;28;20206;-75
2022/07/06 08:32:21;;;;;;;4.27;2.40;;;;;;;25.41;62.50;101010.19;4986415;28;20185;-75
2022/07/06 08:34:47;;;;;;;3.00;1.87;;;;;;;25.50;62.88;101016.75;4972965;28;20188;-75
2022/07/06 08:37:12;;;;;;;4.83;2.40;;;;;;;25.17;62.94;101014.28;4969739;28;20896;-75
2022/07/06 08:39:38;;;;;;;4.97;2.90;;;;;;;24.82;63.83;101012.75;4970291;28;20277;-75
2022/07/06 08:42:03;;;;;;;4.30;2.30;;;;;;;24.63;64.48;101012.94;4971199;28;20245;-75
2022/07/06 08:44:29;;;;;;;6.47;2.73;;;;;;;24.25;65.42;101014.16;4969176;28;20194;-75
2022/07/06 08:46:58;;;;;;;6.40;2.43;;;;;;;24.00;65.98;101010.19;4965675;28;20276;-76
2022/07/06 08:49:26;;;;;;;5.17;2.30;;;;;;;23.95;66.50;101019.25;4965292;28;20197;-75
2022/07/06 08:51:52;;;;;;;4.63;2.03;;;;;;;24.16;65.87;101017.28;4970260;28;20182;-76
2022/07/06 08:54:20;;;;;;;3.17;2.40;;;;;;;24.34;65.57;101026.84;4970165;28;20313;-76
2022/07/06 08:56:45;;;;;;;2.67;2.40;;;;;;;24.34;65.91;101021.56;4988029;28;20639;-75
2022/07/06 08:59:11;;;;;;;4.60;2.43;;;;;;;24.35;66.37;101023.28;4986292;28;20209;-75
2022/07/06 09:01:38;;;;;;;6.13;2.60;;;;;;;24.26;65.55;101023.78;4971284;28;20190;-75
2022/07/06 09:04:06;;;;;;;2.40;2.20;;;;;;;24.17;65.43;101024.28;4970934;28;20186;-76
2022/07/06 09:06:34;;;;;;;5.60;2.47;;;;;;;24.10;65.47;101028.19;4986829;28;20206;-76
2022/07/06 09:09:04;;;;;;;3.80;2.50;;;;;;;24.07;66.14;101029.19;4973494;28;20284;-76
2022/07/06 09:11:30;;;;;;;4.17;2.20;;;;;;;24.10;66.47;101025.56;4977486;28;20620;-76
2022/07/06 09:13:55;;;;;;;5.47;2.07;;;;;;;24.07;66.16;101023.06;4972334;28;20189;-76
2022/07/06 09:16:30;;;;;;;6.17;2.33;;;;;;;24.15;66.69;101027.00;4971566;28;20202;-75
2022/07/06 09:18:56;;;;;;;3.47;2.27;;;;;;;24.14;66.93;101027.94;4985482;28;20173;-76
2022/07/06 09:21:24;;;;;;;5.53;2.47;;;;;;;24.13;66.36;101031.53;4973767;28;20182;-75
2022/07/06 09:23:57;;;;;;;2.40;1.80;;;;;;;24.12;67.12;101032.47;4975514;28;20645;-76
2022/07/06 09:26:23;;;;;;;4.27;2.10;;;;;;;24.14;66.53;101035.00;4979385;28;20205;-75
2022/07/06 09:28:49;;;;;;;2.60;2.10;;;;;;;23.82;67.04;101030.50;4970918;28;20181;-75
2022/07/06 09:31:21;;;;;;;4.17;2.67;;;;;;;23.69;67.43;101032.91;5088521;27;20561;-76
2022/07/06 09:33:57;;;;;;;3.47;2.23;;;;;;;23.82;66.79;101035.78;5081415;28;20757;-75
2022/07/06 09:36:52;;;;;;;3.73;2.73;;;;;;;23.93;66.86;101048.44;5085369;28;20201;-74
2022/07/06 09:39:20;;;;;;;4.70;2.33;;;;;;;24.00;66.30;101035.78;5096459;28;20181;-76
2022/07/06 09:41:59;;;;;;;4.03;2.47;;;;;;;24.08;66.00;101028.25;5085837;28;20541;-76
2022/07/06 09:44:46;;;;;;;2.63;2.17;;;;;;;24.08;65.40;101033.56;5078068;28;20598;-76
2022/07/06 09:47:12;;;;;;;4.40;2.20;;;;;;;24.25;65.37;101035.31;5083753;28;20287;-76
2022/07/06 09:49:38;;;;;;;2.40;2.20;;;;;;;24.34;65.68;101040.06;5081412;28;20383;-75
2022/07/06 09:52:07;;;;;;;3.83;2.40;;;;;;;24.39;64.75;101041.63;5086864;28;20196;-75
2022/07/06 09:54:34;;;;;;;4.63;2.10;;;;;;;24.63;64.84;101040.25;5084591;28;20204;-75
2022/07/06 09:57:00;;;;;;;4.37;2.63;;;;;;;24.81;63.53;101041.00;5083924;28;20669;-74
2022/07/06 09:59:28;;;;;;;5.90;2.40;;;;;;;24.79;63.13;101042.06;5073900;28;20228;-75
2022/07/06 10:01:56;;;;;;;2.47;2.23;;;;;;;24.87;64.39;101039.84;5085619;28;20177;-76
2022/07/06 10:04:23;;;;;;;2.27;2.07;;;;;;;25.00;63.91;101044.41;5083541;28;20465;-76
2022/07/06 10:06:49;;;;;;;2.90;1.73;;;;;;;25.07;63.75;101048.41;5079026;28;20197;-76
2022/07/06 10:09:15;;;;;;;4.57;2.50;;;;;;;24.88;63.15;101049.44;5085909;28;20288;-75
2022/07/06 10:11:44;;;;;;;4.30;2.53;;;;;;;24.91;63.09;101043.16;5085071;28;20203;-76
2022/07/06 10:14:11;;;;;;;6.27;2.60;;;;;;;24.94;63.18;101046.47;5086270;28;20177;-75
2022/07/06 10:16:38;;;;;;;3.23;2.77;;;;;;;24.81;63.46;101045.47;5087705;28;20201;-76
2022/07/06 10:19:06;;;;;;;4.47;2.57;;;;;;;24.58;63.61;101049.38;5075886;28;20190;-75
2022/07/06 10:21:32;;;;;;;2.97;2.20;;;;;;;24.56;63.34;101043.31;5077868;28;20177;-76
2022/07/06 10:23:59;;;;;;;3.63;2.10;;;;;;;24.62;63.56;101042.97;5075747;28;20205;-77
2022/07/06 10:26:25;;;;;;;2.43;2.23;;;;;;;24.79;63.64;101042.06;5078163;28;20229;-75
2022/07/06 10:28:52;;;;;;;2.33;2.13;;;;;;;24.80;64.22;101033.16;5075475;28;20220;-76
2022/07/06 10:31:19;;;;;;;3.57;2.60;;;;;;;24.98;64.10;101038.34;5075222;28;20692;-75
2022/07/06 10:33:46;;;;;;;2.80;1.80;;;;;;;25.22;64.02;101031.63;5080423;28;20193;-75
2022/07/06 10:36:13;;;;;;;4.23;2.03;;;;;;;25.31;63.95;101026.72;5081004;28;20209;-76
2022/07/06 10:38:39;;;;;;;5.03;2.17;;;;;;;25.41;64.16;101033.16;5084060;28;21150;-76
2022/07/06 10:41:06;;;;;;;3.07;1.93;;;;;;;25.67;64.03;101030.78;5077548;28;20181;-75
2022/07/06 10:43:36;;;;;;;3.10;1.80;;;;;;;26.06;63.35;101023.97;5077531;28;20185;-76
2022/07/06 10:46:11;;;;;;;3.30;1.93;;;;;;;26.44;62.60;101033.97;5062797;28;20214;-77
2022/07/06 10:48:41;;;;;;;3.47;2.03;;;;;;;26.39;61.51;101030.78;5067850;28;20627;-77
2022/07/06 10:51:08;;;;;;;3.00;2.30;;;;;;;26.28;61.77;101033.22;5070640;28;20203;-78
2022/07/06 10:53:35;;;;;;;3.70;2.17;;;;;;;26.05;62.31;101024.91;5071874;28;20186;-76
2022/07/06 10:56:03;;;;;;;2.13;1.93;;;;;;;26.03;62.46;101030.28;5083249;28;20670;-76
2022/07/06 10:58:36;;;;;;;2.50;1.77;;;;;;;26.18;62.66;101038.25;5068798;28;20257;-77
2022/07/06 11:01:02;;;;;;;2.63;2.10;;;;;;;26.46;62.50;101029.41;5066277;28;20547;-76
2022/07/06 11:03:38;;;;;;;2.63;1.70;;;;;;;26.70;62.27;101023.44;5070212;28;20193;-76
2022/07/06 11:06:24;;;;;;;3.60;2.00;;;;;;;26.87;62.09;101026.81;5068698;28;20233;-77
2022/07/06 11:08:54;;;;;;;2.93;1.77;;;;;;;27.05;62.33;101017.63;5064568;28;20186;-76
2022/07/06 11:11:41;;;;;;;2.00;1.80;;;;;;;27.20;62.03;101015.75;5071136;28;20204;-76
2022/07/06 11:14:08;;;;;;;2.10;1.90;;;;;;;27.05;61.37;101012.31;5065344;28;20199;-75
2022/07/06 11:16:38;;;;;;;2.10;1.73;;;;;;;26.93;61.61;101005.19;5068772;28;20635;-75
2022/07/06 11:19:05;;;;;;;2.90;2.00;;;;;;;26.84;62.03;101011.97;5065193;28;20202;-76
2022/07/06 11:21:36;;;;;;;2.47;1.80;;;;;;;27.13;62.51;101014.47;5070347;28;20190;-76
2022/07/06 11:24:04;;;;;;;1.83;1.70;;;;;;;27.35;61.88;101007.69;5066955;28;20205;-77